createdAt,value
2023-03-08T00:03:56.996Z,979.79
2023-03-08T00:09:01.109Z,979.74
2023-03-08T00:14:05.270Z,979.75
2023-03-08T00:19:09.525Z,979.72
2023-03-08T00:24:13.613Z,979.87
2023-03-08T00:29:17.870Z,979.79
2023-03-08T00:34:22.001Z,979.72
2023-03-08T00:39:26.149Z,979.69
2023-03-08T00:44:30.284Z,979.69
2023-03-08T00:49:34.444Z,979.71
2023-03-08T00:54:38.653Z,979.78
2023-03-08T00:59:42.779Z,979.68
2023-03-08T01:04:46.950Z,979.69
2023-03-08T01:09:51.113Z,979.62
2023-03-08T01:14:55.288Z,979.53
2023-03-08T01:19:59.428Z,979.59
2023-03-08T01:25:03.625Z,979.45
2023-03-08T01:30:07.797Z,979.45
2023-03-08T01:35:11.946Z,979.38
2023-03-08T01:40:14.205Z,979.29
2023-03-08T01:45:18.360Z,979.18
2023-03-08T01:50:22.532Z,979.31
2023-03-08T01:55:26.710Z,979.07
2023-03-08T02:00:30.886Z,979.11
2023-03-08T02:05:35.020Z,979.09
2023-03-08T02:10:39.222Z,978.96
2023-03-08T02:15:43.372Z,978.94
2023-03-08T02:20:47.522Z,978.87
2023-03-08T02:25:51.685Z,978.77
2023-03-08T02:30:55.939Z,978.70
2023-03-08T02:36:00.108Z,978.62
2023-03-08T02:41:04.226Z,978.74
2023-03-08T02:46:06.494Z,978.72
2023-03-08T02:51:10.652Z,978.75
2023-03-08T02:56:14.797Z,978.63
2023-03-08T03:01:18.976Z,978.68
2023-03-08T03:06:23.180Z,978.62
2023-03-08T03:11:27.347Z,978.56
2023-03-08T03:16:31.441Z,978.50
2023-03-08T03:21:35.617Z,978.63
2023-03-08T03:26:37.891Z,978.62
2023-03-08T03:31:42.050Z,978.54
2023-03-08T03:36:44.317Z,978.48
2023-03-08T03:41:48.502Z,978.54
2023-03-08T03:46:50.771Z,978.46
2023-03-08T03:51:54.958Z,978.39
2023-03-08T03:56:59.129Z,978.43
2023-03-08T04:02:03.290Z,978.31
2023-03-08T04:07:07.461Z,978.39
2023-03-08T04:12:11.623Z,978.30
2023-03-08T04:17:15.821Z,978.20
2023-03-08T04:22:19.967Z,977.91
2023-03-08T04:27:24.124Z,978.03
2023-03-08T04:32:28.293Z,977.97
2023-03-08T04:37:32.412Z,977.85
2023-03-08T04:42:36.611Z,977.91
2023-03-08T04:47:40.897Z,977.75
2023-03-08T04:52:44.938Z,977.75
2023-03-08T04:57:49.081Z,977.64
2023-03-08T05:02:53.257Z,977.55
2023-03-08T05:07:59.448Z,977.43
2023-03-08T05:13:03.711Z,977.35
2023-03-08T05:18:05.780Z,977.32
2023-03-08T05:23:09.909Z,977.22
2023-03-08T05:28:14.068Z,977.19
2023-03-08T05:33:16.367Z,977.21
2023-03-08T05:38:20.550Z,977.11
2023-03-08T05:43:24.704Z,976.99
2023-03-08T05:48:27.019Z,976.82
2023-03-08T05:53:31.116Z,976.87
2023-03-08T05:58:35.301Z,976.76
2023-03-08T06:03:39.506Z,976.65
2023-03-08T06:08:43.613Z,976.54
2023-03-08T06:13:47.782Z,976.52
2023-03-08T06:18:51.970Z,976.54
2023-03-08T06:23:56.148Z,976.56
2023-03-08T06:29:00.299Z,976.53
2023-03-08T06:34:04.491Z,976.41
2023-03-08T06:39:08.651Z,976.25
2023-03-08T06:44:12.828Z,976.13
2023-03-08T06:49:16.991Z,976.13
2023-03-08T06:54:21.112Z,976.01
2023-03-08T06:59:25.304Z,976.03
2023-03-08T07:04:29.524Z,975.98
2023-03-08T07:09:33.631Z,975.88
2023-03-08T07:14:37.787Z,975.85
2023-03-08T07:19:41.982Z,975.75
2023-03-08T07:24:46.686Z,975.72
2023-03-08T07:29:50.289Z,975.69
2023-03-08T07:45:00.894Z,975.63
2023-03-08T07:50:03.190Z,975.59
2023-03-08T07:55:07.343Z,975.56
2023-03-08T08:00:09.602Z,975.54
2023-03-08T08:05:13.868Z,975.42
2023-03-08T08:10:17.960Z,975.25
2023-03-08T08:15:22.106Z,975.10
2023-03-08T08:20:26.294Z,974.99
2023-03-08T08:25:30.427Z,975.00
2023-03-08T08:30:34.594Z,974.94
2023-03-08T08:35:43.465Z,974.81
2023-03-08T08:40:42.917Z,974.71
2023-03-08T08:45:47.115Z,974.56
2023-03-08T08:50:51.265Z,974.49
2023-03-08T08:55:55.413Z,974.50
2023-03-08T09:00:59.609Z,974.27
2023-03-08T09:06:03.772Z,974.18
2023-03-08T09:11:07.932Z,974.20
2023-03-08T09:16:12.171Z,974.20
2023-03-08T09:21:16.238Z,973.96
2023-03-08T09:26:20.430Z,973.93
2023-03-08T09:31:24.614Z,973.90
2023-03-08T09:36:28.791Z,973.91
2023-03-08T09:41:32.936Z,973.75
2023-03-08T09:46:35.252Z,973.71
2023-03-08T09:51:39.518Z,973.66
2023-03-08T09:56:41.652Z,973.73
2023-03-08T10:01:45.826Z,973.66
2023-03-08T10:06:49.958Z,973.44
2023-03-08T10:11:54.152Z,973.52
2023-03-08T10:16:58.342Z,973.40
2023-03-08T10:22:02.494Z,973.33
2023-03-08T10:27:06.611Z,973.39
2023-03-08T10:32:10.855Z,973.39
2023-03-08T10:37:14.993Z,973.29
2023-03-08T10:42:19.167Z,973.07
2023-03-08T10:47:23.401Z,972.92
2023-03-08T10:52:27.471Z,972.67
2023-03-08T10:57:31.609Z,972.58
2023-03-08T11:02:35.810Z,972.64
2023-03-08T11:07:39.958Z,972.76
2023-03-08T11:12:44.146Z,972.63
2023-03-08T11:17:48.288Z,972.80
2023-03-08T11:22:52.453Z,973.02
2023-03-08T11:27:56.656Z,972.84
2023-03-08T11:33:00.979Z,972.91
2023-03-08T11:38:04.945Z,973.04
2023-03-08T11:43:07.233Z,972.88
2023-03-08T11:48:12.534Z,972.81
2023-03-08T11:53:13.636Z,972.86
2023-03-08T11:58:17.828Z,972.83
2023-03-08T12:03:22.062Z,972.91
2023-03-08T12:08:26.276Z,972.91
2023-03-08T12:13:30.352Z,973.05
2023-03-08T12:18:34.491Z,972.92
2023-03-08T12:23:38.655Z,972.89
2023-03-08T12:28:42.909Z,973.01
2023-03-08T12:33:47.007Z,973.07
2023-03-08T12:38:51.131Z,972.96
2023-03-08T12:43:55.322Z,972.83
2023-03-08T12:54:03.666Z,972.65
2023-03-08T12:59:07.817Z,972.74
2023-03-08T13:04:11.996Z,972.67
2023-03-08T13:09:16.130Z,972.72
2023-03-08T13:14:20.308Z,972.64
2023-03-08T13:19:24.543Z,972.68
2023-03-08T13:24:28.638Z,972.47
2023-03-08T13:29:32.819Z,972.51
2023-03-08T13:34:36.956Z,972.47
2023-03-08T13:39:41.161Z,972.43
2023-03-08T13:44:43.386Z,972.37
2023-03-08T13:49:48.106Z,972.42
2023-03-08T13:54:49.846Z,972.37
2023-03-08T13:59:54.244Z,972.30
2023-03-08T14:04:58.306Z,972.12
2023-03-08T14:10:02.368Z,972.12
2023-03-08T14:15:06.567Z,972.04
2023-03-08T14:20:10.710Z,972.08
2023-03-08T14:25:14.945Z,972.03
2023-03-08T14:30:19.060Z,971.93
2023-03-08T14:35:23.148Z,971.91
2023-03-08T14:40:27.358Z,971.88
2023-03-08T14:45:31.480Z,971.84
2023-03-08T14:50:35.654Z,971.66
2023-03-08T14:55:39.877Z,971.56
2023-03-08T15:00:43.991Z,971.45
2023-03-08T15:05:48.206Z,971.38
2023-03-08T15:10:52.327Z,971.46
2023-03-08T15:15:56.492Z,971.55
2023-03-08T15:21:00.664Z,971.58
2023-03-08T15:26:04.796Z,971.51
2023-03-08T15:31:09.004Z,971.47
2023-03-08T15:36:13.125Z,971.50
2023-03-08T15:41:15.437Z,971.49
2023-03-08T15:46:19.600Z,971.40
2023-03-08T15:51:21.846Z,971.44
2023-03-08T15:56:26.023Z,971.49
2023-03-08T16:01:30.179Z,971.54
2023-03-08T16:06:34.398Z,971.41
2023-03-08T16:11:38.578Z,971.45
2023-03-08T16:16:45.556Z,971.57
2023-03-08T16:21:46.845Z,971.41
2023-03-08T16:26:51.009Z,971.47
2023-03-08T16:31:55.215Z,971.42
2023-03-08T16:36:59.336Z,971.42
2023-03-08T16:42:03.513Z,971.32
2023-03-08T16:47:07.684Z,971.37
2023-03-08T16:52:11.858Z,971.30
2023-03-08T16:57:19.371Z,971.25
2023-03-08T17:02:20.230Z,971.33
2023-03-08T17:07:24.363Z,971.30
2023-03-08T17:12:28.519Z,971.23
2023-03-08T17:17:32.682Z,971.20
2023-03-08T17:22:36.871Z,971.11
2023-03-08T17:27:40.995Z,971.19
2023-03-08T17:32:45.221Z,971.08
2023-03-08T17:37:47.437Z,971.04
2023-03-08T17:42:51.617Z,971.11
2023-03-08T17:47:53.897Z,971.12
2023-03-08T17:52:58.028Z,971.15
2023-03-08T17:58:02.207Z,971.17
2023-03-08T18:03:06.378Z,971.14
2023-03-08T18:08:10.559Z,971.20
2023-03-08T18:13:14.689Z,971.23
2023-03-08T18:18:18.908Z,971.13
2023-03-08T18:23:23.065Z,971.14
2023-03-08T18:28:27.220Z,971.11
2023-03-08T18:33:31.364Z,971.05
2023-03-08T18:38:35.544Z,971.01
2023-03-08T18:43:40.909Z,970.94
2023-03-08T18:48:43.857Z,970.94
2023-03-08T18:53:47.998Z,970.82
2023-03-08T18:58:52.200Z,970.91
2023-03-08T19:03:56.376Z,970.80
2023-03-08T19:09:00.545Z,970.82
2023-03-08T19:14:04.706Z,970.81
2023-03-08T19:19:08.926Z,970.69
2023-03-08T19:24:13.030Z,970.58
2023-03-08T19:29:17.208Z,970.63
2023-03-08T19:34:19.452Z,970.62
2023-03-08T19:39:23.634Z,970.46
2023-03-08T19:44:25.912Z,970.49
2023-03-08T19:49:30.088Z,970.45
2023-03-08T19:54:34.245Z,970.48
2023-03-08T19:59:38.394Z,970.51
2023-03-08T20:04:42.576Z,970.39
2023-03-08T20:09:46.711Z,970.25
2023-03-08T20:14:50.881Z,970.32
2023-03-08T20:19:55.105Z,970.33
2023-03-08T20:24:59.218Z,970.35
2023-03-08T20:30:03.410Z,970.35
2023-03-08T20:35:07.521Z,970.33
2023-03-08T20:40:11.782Z,970.31
2023-03-08T20:45:15.913Z,970.35
2023-03-08T20:50:20.262Z,970.36
2023-03-08T20:55:24.253Z,970.34
2023-03-08T21:00:28.407Z,970.18
2023-03-08T21:05:32.539Z,970.04
2023-03-08T21:10:36.703Z,970.06
2023-03-08T21:15:40.887Z,970.05
2023-03-08T21:20:44.893Z,970.05
2023-03-08T21:25:47.327Z,969.95
2023-03-08T21:30:49.650Z,969.98
2023-03-08T21:35:53.765Z,969.99
2023-03-08T21:40:56.030Z,969.86
2023-03-08T21:46:00.208Z,969.83
2023-03-08T21:51:04.365Z,969.82
2023-03-08T21:56:08.512Z,969.82
2023-03-08T22:01:12.710Z,969.76
2023-03-08T22:06:16.890Z,969.56
2023-03-08T22:11:21.013Z,969.14
2023-03-08T22:16:25.364Z,968.21
2023-03-08T22:21:29.356Z,968.17
2023-03-08T22:26:33.535Z,968.09
2023-03-08T22:31:37.700Z,968.01
2023-03-08T22:36:41.854Z,967.87
2023-03-08T22:41:46.003Z,967.89
2023-03-08T22:46:50.196Z,967.77
2023-03-08T22:51:54.375Z,967.59
2023-03-08T22:56:58.537Z,967.62
2023-03-08T23:02:02.686Z,967.47
2023-03-08T23:07:06.851Z,967.35
2023-03-08T23:12:11.020Z,967.46
2023-03-08T23:17:15.192Z,967.30
2023-03-08T23:22:19.328Z,967.11
2023-03-08T23:27:21.636Z,967.03
2023-03-08T23:32:26.106Z,966.96
2023-03-08T23:37:28.171Z,966.91
2023-03-08T23:42:32.206Z,967.05
2023-03-08T23:47:36.388Z,967.12
2023-03-08T23:52:40.562Z,967.07
2023-03-08T23:57:44.731Z,967.10
